Terminal Aerodrome Forecast
Issued by NWS

Home | Current Version | Previous Version | Text Only | Print | Product List | Glossary On
Versions: 1 2 3 4 5 6 7 8 9 10 11 12 13 14
000
FTUS44 KLZK 062300 RRA
TAFBPK
TAF
KBPK 062345Z 0700/0724 15008KT P6SM BKN120
     FM071000 16010KT P6SM FEW025 BKN100
     FM071600 19008G16KT P6SM SCT035 OVC080 PROB30 0722/0724 5SM
      -TSRA OVC035CB=

USA.gov is the U.S. government's official web portal to all federal, state and local government web resources and services.